sensor_id;sensor_type;location;lat;lon;timestamp;temperature;humidity
32322;DHT22;61553;48.994;8.940;2022-09-03T00:08:37;16.80;88.50
32322;DHT22;61553;48.994;8.940;2022-09-03T00:11:24;16.90;88.00
32322;DHT22;61553;48.994;8.940;2022-09-03T00:16:29;16.90;88.60
32322;DHT22;61553;48.994;8.940;2022-09-03T00:18:59;16.90;88.70
32322;DHT22;61553;48.994;8.940;2022-09-03T00:21:48;16.90;88.50
32322;DHT22;61553;48.994;8.940;2022-09-03T00:24:18;16.90;88.40
32322;DHT22;61553;48.994;8.940;2022-09-03T00:26:58;16.90;89.10
32322;DHT22;61553;48.994;8.940;2022-09-03T00:29:32;16.90;89.70
32322;DHT22;61553;48.994;8.940;2022-09-03T00:32:06;16.80;90.10
32322;DHT22;61553;48.994;8.940;2022-09-03T00:34:38;16.80;90.00
32322;DHT22;61553;48.994;8.940;2022-09-03T00:37:07;16.90;89.50
32322;DHT22;61553;48.994;8.940;2022-09-03T00:39:35;16.90;89.30
32322;DHT22;61553;48.994;8.940;2022-09-03T00:45:09;17.00;89.60
32322;DHT22;61553;48.994;8.940;2022-09-03T00:53:39;16.80;90.40
32322;DHT22;61553;48.994;8.940;2022-09-03T00:59:13;16.70;90.80
32322;DHT22;61553;48.994;8.940;2022-09-03T01:04:43;16.70;90.70
32322;DHT22;61553;48.994;8.940;2022-09-03T01:07:29;16.70;90.80
32322;DHT22;61553;48.994;8.940;2022-09-03T01:12:37;16.70;91.80
32322;DHT22;61553;48.994;8.940;2022-09-03T01:15:11;16.70;91.90
32322;DHT22;61553;48.994;8.940;2022-09-03T01:20:37;16.60;92.50
32322;DHT22;61553;48.994;8.940;2022-09-03T01:23:32;16.60;92.80
32322;DHT22;61553;48.994;8.940;2022-09-03T01:29:28;16.60;92.40
32322;DHT22;61553;48.994;8.940;2022-09-03T01:32:07;16.60;92.60
32322;DHT22;61553;48.994;8.940;2022-09-03T01:37:33;16.60;92.60
32322;DHT22;61553;48.994;8.940;2022-09-03T01:50:42;16.50;93.20
32322;DHT22;61553;48.994;8.940;2022-09-03T01:58:48;16.40;93.70
32322;DHT22;61553;48.994;8.940;2022-09-03T02:01:25;16.40;93.90
32322;DHT22;61553;48.994;8.940;2022-09-03T02:03:52;16.30;94.00
32322;DHT22;61553;48.994;8.940;2022-09-03T02:06:25;16.30;94.20
32322;DHT22;61553;48.994;8.940;2022-09-03T02:08:52;16.30;94.00
32322;DHT22;61553;48.994;8.940;2022-09-03T02:11:18;16.40;93.60
32322;DHT22;61553;48.994;8.940;2022-09-03T02:13:46;16.50;93.40
32322;DHT22;61553;48.994;8.940;2022-09-03T02:16:28;16.50;93.70
32322;DHT22;61553;48.994;8.940;2022-09-03T02:18:58;16.60;94.30
32322;DHT22;61553;48.994;8.940;2022-09-03T02:21:30;16.50;94.70
32322;DHT22;61553;48.994;8.940;2022-09-03T02:23:56;16.40;94.80
32322;DHT22;61553;48.994;8.940;2022-09-03T02:26:23;16.40;94.90
32322;DHT22;61553;48.994;8.940;2022-09-03T02:28:50;16.30;94.90
32322;DHT22;61553;48.994;8.940;2022-09-03T02:31:17;16.30;95.10
32322;DHT22;61553;48.994;8.940;2022-09-03T02:33:45;16.30;95.10
32322;DHT22;61553;48.994;8.940;2022-09-03T02:36:14;16.20;95.30
32322;DHT22;61553;48.994;8.940;2022-09-03T02:38:42;16.20;95.50
32322;DHT22;61553;48.994;8.940;2022-09-03T02:41:09;16.20;95.70
32322;DHT22;61553;48.994;8.940;2022-09-03T02:46:09;16.10;96.30
32322;DHT22;61553;48.994;8.940;2022-09-03T02:48:37;16.10;96.80
32322;DHT22;61553;48.994;8.940;2022-09-03T02:51:03;16.10;97.00
32322;DHT22;61553;48.994;8.940;2022-09-03T02:53:28;16.10;97.30
32322;DHT22;61553;48.994;8.940;2022-09-03T02:55:58;16.10;98.00
32322;DHT22;61553;48.994;8.940;2022-09-03T02:58:24;16.10;97.60
32322;DHT22;61553;48.994;8.940;2022-09-03T03:00:51;16.10;97.90
32322;DHT22;61553;48.994;8.940;2022-09-03T03:03:17;16.10;96.90
32322;DHT22;61553;48.994;8.940;2022-09-03T03:05:45;16.10;96.50
32322;DHT22;61553;48.994;8.940;2022-09-03T03:08:13;16.10;97.00
32322;DHT22;61553;48.994;8.940;2022-09-03T03:10:46;16.10;97.00
32322;DHT22;61553;48.994;8.940;2022-09-03T03:13:13;16.20;96.70
32322;DHT22;61553;48.994;8.940;2022-09-03T03:15:39;16.20;96.60
32322;DHT22;61553;48.994;8.940;2022-09-03T03:18:05;16.20;96.60
32322;DHT22;61553;48.994;8.940;2022-09-03T03:20:32;16.20;96.50
32322;DHT22;61553;48.994;8.940;2022-09-03T03:23:01;16.20;96.70
32322;DHT22;61553;48.994;8.940;2022-09-03T03:25:26;16.20;96.80
32322;DHT22;61553;48.994;8.940;2022-09-03T03:27:54;16.20;97.10
32322;DHT22;61553;48.994;8.940;2022-09-03T03:30:21;16.20;97.00
32322;DHT22;61553;48.994;8.940;2022-09-03T03:32:47;16.20;97.10
32322;DHT22;61553;48.994;8.940;2022-09-03T03:35:13;16.20;97.40
32322;DHT22;61553;48.994;8.940;2022-09-03T03:37:39;16.20;97.70
32322;DHT22;61553;48.994;8.940;2022-09-03T03:40:05;16.20;97.90
32322;DHT22;61553;48.994;8.940;2022-09-03T03:42:33;16.10;98.10
32322;DHT22;61553;48.994;8.940;2022-09-03T03:44:59;16.10;98.40
32322;DHT22;61553;48.994;8.940;2022-09-03T03:47:27;16.10;98.60
32322;DHT22;61553;48.994;8.940;2022-09-03T03:49:53;16.10;98.60
32322;DHT22;61553;48.994;8.940;2022-09-03T03:52:19;16.10;98.60
32322;DHT22;61553;48.994;8.940;2022-09-03T03:54:44;16.10;98.40
32322;DHT22;61553;48.994;8.940;2022-09-03T03:57:10;16.10;98.20
32322;DHT22;61553;48.994;8.940;2022-09-03T03:59:35;16.10;98.20
32322;DHT22;61553;48.994;8.940;2022-09-03T04:02:01;16.10;98.40
32322;DHT22;61553;48.994;8.940;2022-09-03T04:04:26;16.10;98.60
32322;DHT22;61553;48.994;8.940;2022-09-03T04:06:52;16.00;98.80
32322;DHT22;61553;48.994;8.940;2022-09-03T04:09:18;16.00;99.00
32322;DHT22;61553;48.994;8.940;2022-09-03T04:11:43;16.00;99.20
32322;DHT22;61553;48.994;8.940;2022-09-03T04:14:09;16.00;99.30
32322;DHT22;61553;48.994;8.940;2022-09-03T04:16:35;16.00;99.50
32322;DHT22;61553;48.994;8.940;2022-09-03T04:19:00;16.00;99.60
32322;DHT22;61553;48.994;8.940;2022-09-03T04:21:28;15.90;99.70
32322;DHT22;61553;48.994;8.940;2022-09-03T04:23:55;15.90;99.80
32322;DHT22;61553;48.994;8.940;2022-09-03T04:26:23;16.00;99.80
32322;DHT22;61553;48.994;8.940;2022-09-03T04:28:49;16.00;99.60
32322;DHT22;61553;48.994;8.940;2022-09-03T04:31:18;16.00;99.70
32322;DHT22;61553;48.994;8.940;2022-09-03T04:33:44;16.10;99.40
32322;DHT22;61553;48.994;8.940;2022-09-03T04:38:36;16.20;99.20
32322;DHT22;61553;48.994;8.940;2022-09-03T04:41:03;16.10;99.10
32322;DHT22;61553;48.994;8.940;2022-09-03T04:43:29;16.10;99.30
32322;DHT22;61553;48.994;8.940;2022-09-03T04:45:59;16.10;99.30
32322;DHT22;61553;48.994;8.940;2022-09-03T04:48:25;16.20;99.30
32322;DHT22;61553;48.994;8.940;2022-09-03T04:50:51;16.20;99.10
32322;DHT22;61553;48.994;8.940;2022-09-03T04:53:17;16.20;99.30
32322;DHT22;61553;48.994;8.940;2022-09-03T04:55:43;16.20;99.10
32322;DHT22;61553;48.994;8.940;2022-09-03T04:58:08;16.30;99.00
32322;DHT22;61553;48.994;8.940;2022-09-03T05:00:35;16.30;99.10
32322;DHT22;61553;48.994;8.940;2022-09-03T05:03:01;16.30;99.10
32322;DHT22;61553;48.994;8.940;2022-09-03T05:05:32;16.30;99.20
32322;DHT22;61553;48.994;8.940;2022-09-03T05:08:01;16.30;99.10
32322;DHT22;61553;48.994;8.940;2022-09-03T05:10:27;16.40;99.00
32322;DHT22;61553;48.994;8.940;2022-09-03T05:12:58;16.50;99.00
32322;DHT22;61553;48.994;8.940;2022-09-03T05:15:24;16.50;99.00
32322;DHT22;61553;48.994;8.940;2022-09-03T05:17:54;16.50;99.00
32322;DHT22;61553;48.994;8.940;2022-09-03T05:20:20;16.50;99.20
32322;DHT22;61553;48.994;8.940;2022-09-03T05:22:45;16.60;99.30
32322;DHT22;61553;48.994;8.940;2022-09-03T05:25:11;16.60;99.10
32322;DHT22;61553;48.994;8.940;2022-09-03T05:27:37;16.60;99.00
32322;DHT22;61553;48.994;8.940;2022-09-03T05:30:02;16.70;98.90
32322;DHT22;61553;48.994;8.940;2022-09-03T05:32:30;16.80;98.50
32322;DHT22;61553;48.994;8.940;2022-09-03T05:34:55;16.90;98.60
32322;DHT22;61553;48.994;8.940;2022-09-03T05:37:21;17.00;98.30
32322;DHT22;61553;48.994;8.940;2022-09-03T05:39:48;17.10;98.20
32322;DHT22;61553;48.994;8.940;2022-09-03T05:42:13;17.30;98.40
32322;DHT22;61553;48.994;8.940;2022-09-03T05:44:39;17.50;98.40
32322;DHT22;61553;48.994;8.940;2022-09-03T05:47:05;17.60;98.70
32322;DHT22;61553;48.994;8.940;2022-09-03T05:49:31;17.80;99.00
32322;DHT22;61553;48.994;8.940;2022-09-03T05:51:57;17.90;98.40
32322;DHT22;61553;48.994;8.940;2022-09-03T05:54:22;18.10;97.80
32322;DHT22;61553;48.994;8.940;2022-09-03T05:56:48;18.20;97.20
32322;DHT22;61553;48.994;8.940;2022-09-03T05:59:14;18.40;96.70
32322;DHT22;61553;48.994;8.940;2022-09-03T06:01:44;18.50;96.30
32322;DHT22;61553;48.994;8.940;2022-09-03T06:04:12;18.50;96.40
32322;DHT22;61553;48.994;8.940;2022-09-03T06:06:43;18.50;95.90
32322;DHT22;61553;48.994;8.940;2022-09-03T06:09:14;18.70;95.90
32322;DHT22;61553;48.994;8.940;2022-09-03T06:11:42;18.70;96.00
32322;DHT22;61553;48.994;8.940;2022-09-03T06:14:10;18.80;95.50
32322;DHT22;61553;48.994;8.940;2022-09-03T06:16:39;18.90;95.50
32322;DHT22;61553;48.994;8.940;2022-09-03T06:19:06;19.00;95.00
32322;DHT22;61553;48.994;8.940;2022-09-03T06:21:34;19.10;94.70
32322;DHT22;61553;48.994;8.940;2022-09-03T06:24:01;19.30;94.80
32322;DHT22;61553;48.994;8.940;2022-09-03T06:26:27;19.50;94.50
32322;DHT22;61553;48.994;8.940;2022-09-03T06:28:53;19.70;94.00
32322;DHT22;61553;48.994;8.940;2022-09-03T06:31:20;19.90;93.20
32322;DHT22;61553;48.994;8.940;2022-09-03T06:33:46;20.00;93.30
32322;DHT22;61553;48.994;8.940;2022-09-03T06:36:15;20.00;92.70
32322;DHT22;61553;48.994;8.940;2022-09-03T06:38:42;20.00;92.30
32322;DHT22;61553;48.994;8.940;2022-09-03T06:41:13;19.90;92.70
32322;DHT22;61553;48.994;8.940;2022-09-03T06:43:41;19.80;92.80
32322;DHT22;61553;48.994;8.940;2022-09-03T06:46:10;19.80;92.70
32322;DHT22;61553;48.994;8.940;2022-09-03T06:48:36;19.70;92.80
32322;DHT22;61553;48.994;8.940;2022-09-03T06:51:10;19.50;93.10
32322;DHT22;61553;48.994;8.940;2022-09-03T06:53:37;19.40;93.50
32322;DHT22;61553;48.994;8.940;2022-09-03T06:56:06;19.40;93.60
32322;DHT22;61553;48.994;8.940;2022-09-03T06:58:34;19.40;93.70
32322;DHT22;61553;48.994;8.940;2022-09-03T07:01:04;19.50;95.50
32322;DHT22;61553;48.994;8.940;2022-09-03T07:03:31;19.50;96.70
32322;DHT22;61553;48.994;8.940;2022-09-03T07:06:06;19.70;97.10
32322;DHT22;61553;48.994;8.940;2022-09-03T07:08:32;19.90;96.10
32322;DHT22;61553;48.994;8.940;2022-09-03T07:11:02;20.40;97.20
32322;DHT22;61553;48.994;8.940;2022-09-03T07:13:40;22.60;92.90
32322;DHT22;61553;48.994;8.940;2022-09-03T07:16:10;22.80;92.50
32322;DHT22;61553;48.994;8.940;2022-09-03T07:18:36;22.80;91.50
32322;DHT22;61553;48.994;8.940;2022-09-03T07:21:07;22.60;90.50
32322;DHT22;61553;48.994;8.940;2022-09-03T07:23:34;22.40;90.60
32322;DHT22;61553;48.994;8.940;2022-09-03T07:26:03;22.30;91.70
32322;DHT22;61553;48.994;8.940;2022-09-03T07:28:30;22.40;91.50
32322;DHT22;61553;48.994;8.940;2022-09-03T07:31:05;22.40;91.20
32322;DHT22;61553;48.994;8.940;2022-09-03T07:33:32;22.50;91.10
32322;DHT22;61553;48.994;8.940;2022-09-03T07:36:04;22.70;90.80
32322;DHT22;61553;48.994;8.940;2022-09-03T07:38:31;22.80;90.40
32322;DHT22;61553;48.994;8.940;2022-09-03T07:40:58;23.10;89.30
32322;DHT22;61553;48.994;8.940;2022-09-03T07:43:26;23.40;87.20
32322;DHT22;61553;48.994;8.940;2022-09-03T07:45:53;23.50;84.30
32322;DHT22;61553;48.994;8.940;2022-09-03T07:48:20;23.60;83.60
32322;DHT22;61553;48.994;8.940;2022-09-03T07:50:45;23.50;83.30
32322;DHT22;61553;48.994;8.940;2022-09-03T07:53:12;23.70;82.30
32322;DHT22;61553;48.994;8.940;2022-09-03T07:55:38;24.10;81.70
32322;DHT22;61553;48.994;8.940;2022-09-03T07:58:04;24.50;80.10
32322;DHT22;61553;48.994;8.940;2022-09-03T08:00:30;25.90;76.70
32322;DHT22;61553;48.994;8.940;2022-09-03T08:02:58;26.10;73.80
32322;DHT22;61553;48.994;8.940;2022-09-03T08:05:31;26.20;72.80
32322;DHT22;61553;48.994;8.940;2022-09-03T08:07:59;25.70;73.00
32322;DHT22;61553;48.994;8.940;2022-09-03T08:10:26;25.50;73.10
32322;DHT22;61553;48.994;8.940;2022-09-03T08:12:55;25.00;73.80
32322;DHT22;61553;48.994;8.940;2022-09-03T08:15:20;25.10;73.60
32322;DHT22;61553;48.994;8.940;2022-09-03T08:17:46;25.20;73.90
32322;DHT22;61553;48.994;8.940;2022-09-03T08:20:11;25.40;73.10
32322;DHT22;61553;48.994;8.940;2022-09-03T08:22:37;25.40;72.60
32322;DHT22;61553;48.994;8.940;2022-09-03T08:25:03;25.20;72.80
32322;DHT22;61553;48.994;8.940;2022-09-03T08:27:30;24.90;73.90
32322;DHT22;61553;48.994;8.940;2022-09-03T08:29:56;24.70;75.90
32322;DHT22;61553;48.994;8.940;2022-09-03T08:32:21;24.20;78.30
32322;DHT22;61553;48.994;8.940;2022-09-03T08:34:47;24.20;78.40
32322;DHT22;61553;48.994;8.940;2022-09-03T08:37:13;23.90;81.40
32322;DHT22;61553;48.994;8.940;2022-09-03T08:39:38;23.50;83.10
32322;DHT22;61553;48.994;8.940;2022-09-03T08:44:55;23.60;84.20
32322;DHT22;61553;48.994;8.940;2022-09-03T08:47:27;23.60;84.00
32322;DHT22;61553;48.994;8.940;2022-09-03T08:49:55;23.40;84.10
32322;DHT22;61553;48.994;8.940;2022-09-03T08:52:47;23.50;84.60
32322;DHT22;61553;48.994;8.940;2022-09-03T08:58:03;23.20;88.40
32322;DHT22;61553;48.994;8.940;2022-09-03T09:00:54;23.20;89.00
32322;DHT22;61553;48.994;8.940;2022-09-03T09:14:45;25.80;81.60
32322;DHT22;61553;48.994;8.940;2022-09-03T09:25:02;24.10;87.50
32322;DHT22;61553;48.994;8.940;2022-09-03T09:27:31;23.80;89.10
32322;DHT22;61553;48.994;8.940;2022-09-03T09:29:58;23.80;88.90
32322;DHT22;61553;48.994;8.940;2022-09-03T09:32:26;24.00;88.20
32322;DHT22;61553;48.994;8.940;2022-09-03T09:34:52;24.30;86.30
32322;DHT22;61553;48.994;8.940;2022-09-03T09:37:19;24.00;87.60
32322;DHT22;61553;48.994;8.940;2022-09-03T09:39:58;24.10;87.50
32322;DHT22;61553;48.994;8.940;2022-09-03T09:42:24;24.00;88.10
32322;DHT22;61553;48.994;8.940;2022-09-03T09:44:51;23.70;88.90
32322;DHT22;61553;48.994;8.940;2022-09-03T09:47:27;23.30;90.10
32322;DHT22;61553;48.994;8.940;2022-09-03T09:49:57;23.40;90.10
32322;DHT22;61553;48.994;8.940;2022-09-03T09:52:26;23.60;90.00
32322;DHT22;61553;48.994;8.940;2022-09-03T09:55:15;24.10;88.60
32322;DHT22;61553;48.994;8.940;2022-09-03T09:57:42;25.00;86.00
32322;DHT22;61553;48.994;8.940;2022-09-03T10:00:11;27.40;80.60
32322;DHT22;61553;48.994;8.940;2022-09-03T10:02:39;31.00;70.80
32322;DHT22;61553;48.994;8.940;2022-09-03T10:05:21;33.40;62.70
32322;DHT22;61553;48.994;8.940;2022-09-03T10:08:01;35.90;54.30
32322;DHT22;61553;48.994;8.940;2022-09-03T10:10:30;36.20;50.20
32322;DHT22;61553;48.994;8.940;2022-09-03T10:13:08;35.50;50.10
32322;DHT22;61553;48.994;8.940;2022-09-03T10:15:48;34.70;50.30
32322;DHT22;61553;48.994;8.940;2022-09-03T10:23:25;34.90;48.60
32322;DHT22;61553;48.994;8.940;2022-09-03T10:26:18;35.60;47.70
32322;DHT22;61553;48.994;8.940;2022-09-03T10:28:50;35.00;48.40
32322;DHT22;61553;48.994;8.940;2022-09-03T10:31:52;35.30;48.30
32322;DHT22;61553;48.994;8.940;2022-09-03T10:37:38;36.70;46.10
32322;DHT22;61553;48.994;8.940;2022-09-03T10:40:16;36.60;46.30
32322;DHT22;61553;48.994;8.940;2022-09-03T10:42:57;36.20;46.60
32322;DHT22;61553;48.994;8.940;2022-09-03T10:45:53;35.50;47.40
32322;DHT22;61553;48.994;8.940;2022-09-03T10:51:17;34.00;49.20
32322;DHT22;61553;48.994;8.940;2022-09-03T11:05:22;31.40;52.90
32322;DHT22;61553;48.994;8.940;2022-09-03T11:07:53;30.90;53.30
32322;DHT22;61553;48.994;8.940;2022-09-03T11:10:31;30.90;53.40
32322;DHT22;61553;48.994;8.940;2022-09-03T11:13:08;30.70;53.50
32322;DHT22;61553;48.994;8.940;2022-09-03T11:20:46;31.60;52.30
32322;DHT22;61553;48.994;8.940;2022-09-03T11:23:15;31.90;52.20
32322;DHT22;61553;48.994;8.940;2022-09-03T11:25:48;32.20;51.20
32322;DHT22;61553;48.994;8.940;2022-09-03T11:34:11;32.10;51.60
32322;DHT22;61553;48.994;8.940;2022-09-03T11:36:39;31.50;52.10
32322;DHT22;61553;48.994;8.940;2022-09-03T11:42:23;30.40;53.80
32322;DHT22;61553;48.994;8.940;2022-09-03T11:44:51;29.70;55.30
32322;DHT22;61553;48.994;8.940;2022-09-03T11:47:34;29.40;55.40
32322;DHT22;61553;48.994;8.940;2022-09-03T11:50:16;29.20;56.00
32322;DHT22;61553;48.994;8.940;2022-09-03T11:52:45;29.30;56.00
32322;DHT22;61553;48.994;8.940;2022-09-03T11:55:11;29.20;55.80
32322;DHT22;61553;48.994;8.940;2022-09-03T11:57:41;29.20;55.40
32322;DHT22;61553;48.994;8.940;2022-09-03T12:00:15;29.10;56.00
32322;DHT22;61553;48.994;8.940;2022-09-03T12:03:00;29.10;55.50
32322;DHT22;61553;48.994;8.940;2022-09-03T12:10:50;28.30;57.40
32322;DHT22;61553;48.994;8.940;2022-09-03T12:16:11;28.00;57.50
32322;DHT22;61553;48.994;8.940;2022-09-03T12:18:40;27.70;58.60
32322;DHT22;61553;48.994;8.940;2022-09-03T12:21:08;27.30;59.20
32322;DHT22;61553;48.994;8.940;2022-09-03T12:23:41;26.90;60.60
32322;DHT22;61553;48.994;8.940;2022-09-03T12:26:07;26.40;61.40
32322;DHT22;61553;48.994;8.940;2022-09-03T12:28:36;26.40;61.70
32322;DHT22;61553;48.994;8.940;2022-09-03T12:31:07;26.40;62.10
32322;DHT22;61553;48.994;8.940;2022-09-03T12:36:24;26.20;64.30
32322;DHT22;61553;48.994;8.940;2022-09-03T12:38:51;26.00;65.50
32322;DHT22;61553;48.994;8.940;2022-09-03T12:41:26;25.90;66.60
32322;DHT22;61553;48.994;8.940;2022-09-03T12:43:57;25.80;65.80
32322;DHT22;61553;48.994;8.940;2022-09-03T12:46:25;25.80;65.30
32322;DHT22;61553;48.994;8.940;2022-09-03T12:49:06;25.60;65.90
32322;DHT22;61553;48.994;8.940;2022-09-03T12:51:42;25.50;66.60
32322;DHT22;61553;48.994;8.940;2022-09-03T12:54:10;25.30;67.80
32322;DHT22;61553;48.994;8.940;2022-09-03T12:56:47;25.10;68.50
32322;DHT22;61553;48.994;8.940;2022-09-03T12:59:18;25.00;68.80
32322;DHT22;61553;48.994;8.940;2022-09-03T13:01:48;25.00;69.30
32322;DHT22;61553;48.994;8.940;2022-09-03T13:04:18;25.10;68.70
32322;DHT22;61553;48.994;8.940;2022-09-03T13:09:21;25.10;71.80
32322;DHT22;61553;48.994;8.940;2022-09-03T13:11:48;24.90;72.20
32322;DHT22;61553;48.994;8.940;2022-09-03T13:14:15;24.80;72.70
32322;DHT22;61553;48.994;8.940;2022-09-03T13:16:47;24.70;72.90
32322;DHT22;61553;48.994;8.940;2022-09-03T13:27:51;24.10;73.50
32322;DHT22;61553;48.994;8.940;2022-09-03T13:30:21;24.00;74.00
32322;DHT22;61553;48.994;8.940;2022-09-03T13:40:47;24.00;73.70
32322;DHT22;61553;48.994;8.940;2022-09-03T13:43:23;24.00;74.20
32322;DHT22;61553;48.994;8.940;2022-09-03T13:45:55;24.10;73.90
32322;DHT22;61553;48.994;8.940;2022-09-03T13:48:40;24.10;74.90
32322;DHT22;61553;48.994;8.940;2022-09-03T13:51:53;24.10;74.90
32322;DHT22;61553;48.994;8.940;2022-09-03T13:57:14;24.10;74.60
32322;DHT22;61553;48.994;8.940;2022-09-03T14:10:26;23.30;78.80
32322;DHT22;61553;48.994;8.940;2022-09-03T14:15:43;23.10;80.20
32322;DHT22;61553;48.994;8.940;2022-09-03T14:20:55;22.90;84.90
32322;DHT22;61553;48.994;8.940;2022-09-03T14:25:54;22.70;88.00
32322;DHT22;61553;48.994;8.940;2022-09-03T14:28:40;22.50;88.60
32322;DHT22;61553;48.994;8.940;2022-09-03T14:37:07;22.50;91.60
32322;DHT22;61553;48.994;8.940;2022-09-03T14:50:54;21.60;99.90
32322;DHT22;61553;48.994;8.940;2022-09-03T15:01:35;20.90;99.90
32322;DHT22;61553;48.994;8.940;2022-09-03T15:04:31;21.00;99.90
32322;DHT22;61553;48.994;8.940;2022-09-03T15:07:51;21.50;99.90
32322;DHT22;61553;48.994;8.940;2022-09-03T15:10:09;22.00;99.90
32322;DHT22;61553;48.994;8.940;2022-09-03T15:18:24;23.60;99.90
32322;DHT22;61553;48.994;8.940;2022-09-03T15:20:53;23.80;99.90
32322;DHT22;61553;48.994;8.940;2022-09-03T15:35:09;24.60;99.90
32322;DHT22;61553;48.994;8.940;2022-09-03T15:37:46;24.50;99.90
32322;DHT22;61553;48.994;8.940;2022-09-03T15:40:27;24.50;99.90
32322;DHT22;61553;48.994;8.940;2022-09-03T15:45:51;24.20;99.90
32322;DHT22;61553;48.994;8.940;2022-09-03T15:48:33;23.80;99.90
32322;DHT22;61553;48.994;8.940;2022-09-03T15:51:24;23.40;99.90
32322;DHT22;61553;48.994;8.940;2022-09-03T15:54:01;23.20;99.90
32322;DHT22;61553;48.994;8.940;2022-09-03T15:57:08;23.00;99.90
32322;DHT22;61553;48.994;8.940;2022-09-03T16:00:02;22.90;99.90
32322;DHT22;61553;48.994;8.940;2022-09-03T16:05:40;22.50;99.90
32322;DHT22;61553;48.994;8.940;2022-09-03T16:16:06;21.90;99.90
32322;DHT22;61553;48.994;8.940;2022-09-03T16:18:37;21.70;99.90
32322;DHT22;61553;48.994;8.940;2022-09-03T16:23:58;21.60;99.90
32322;DHT22;61553;48.994;8.940;2022-09-03T16:27:01;21.50;99.90
32322;DHT22;61553;48.994;8.940;2022-09-03T16:29:29;21.60;99.90
32322;DHT22;61553;48.994;8.940;2022-09-03T16:32:16;21.60;99.90
32322;DHT22;61553;48.994;8.940;2022-09-03T16:34:53;21.70;99.90
32322;DHT22;61553;48.994;8.940;2022-09-03T16:40:10;21.60;99.90
32322;DHT22;61553;48.994;8.940;2022-09-03T16:43:07;21.60;99.90
32322;DHT22;61553;48.994;8.940;2022-09-03T16:48:23;21.60;99.90
32322;DHT22;61553;48.994;8.940;2022-09-03T16:51:12;21.60;99.90
32322;DHT22;61553;48.994;8.940;2022-09-03T16:54:01;21.70;99.90
32322;DHT22;61553;48.994;8.940;2022-09-03T17:04:42;21.70;99.90
32322;DHT22;61553;48.994;8.940;2022-09-03T17:10:47;21.50;99.90
32322;DHT22;61553;48.994;8.940;2022-09-03T17:15:52;21.40;99.90
32322;DHT22;61553;48.994;8.940;2022-09-03T17:18:46;21.30;99.90
32322;DHT22;61553;48.994;8.940;2022-09-03T17:21:22;21.20;99.90
32322;DHT22;61553;48.994;8.940;2022-09-03T17:35:19;20.60;99.90
32322;DHT22;61553;48.994;8.940;2022-09-03T17:45:55;20.20;99.90
32322;DHT22;61553;48.994;8.940;2022-09-03T17:48:53;20.10;99.90
32322;DHT22;61553;48.994;8.940;2022-09-03T17:57:14;19.90;99.90
32322;DHT22;61553;48.994;8.940;2022-09-03T17:59:52;19.80;99.90
32322;DHT22;61553;48.994;8.940;2022-09-03T18:05:29;19.70;99.90
32322;DHT22;61553;48.994;8.940;2022-09-03T18:08:21;19.60;99.90
32322;DHT22;61553;48.994;8.940;2022-09-03T18:16:13;19.30;99.90
32322;DHT22;61553;48.994;8.940;2022-09-03T18:18:46;19.20;99.90
32322;DHT22;61553;48.994;8.940;2022-09-03T18:21:20;19.10;99.90
32322;DHT22;61553;48.994;8.940;2022-09-03T18:27:15;19.10;99.90
32322;DHT22;61553;48.994;8.940;2022-09-03T18:30:08;19.00;99.90
32322;DHT22;61553;48.994;8.940;2022-09-03T18:32:53;19.00;99.90
32322;DHT22;61553;48.994;8.940;2022-09-03T18:35:37;18.90;99.90
32322;DHT22;61553;48.994;8.940;2022-09-03T18:38:30;18.80;99.90
32322;DHT22;61553;48.994;8.940;2022-09-03T18:56:03;18.50;99.90
32322;DHT22;61553;48.994;8.940;2022-09-03T19:01:45;18.40;99.90
32322;DHT22;61553;48.994;8.940;2022-09-03T19:05:00;18.40;99.90
32322;DHT22;61553;48.994;8.940;2022-09-03T19:13:43;18.10;99.90
32322;DHT22;61553;48.994;8.940;2022-09-03T19:17:03;18.00;99.90
32322;DHT22;61553;48.994;8.940;2022-09-03T19:22:45;17.80;99.90
32322;DHT22;61553;48.994;8.940;2022-09-03T19:25:30;17.70;99.90
32322;DHT22;61553;48.994;8.940;2022-09-03T19:28:20;17.60;99.90
32322;DHT22;61553;48.994;8.940;2022-09-03T19:34:17;17.50;99.90
32322;DHT22;61553;48.994;8.940;2022-09-03T19:40:22;17.30;99.90
32322;DHT22;61553;48.994;8.940;2022-09-03T19:46:30;17.00;99.90
32322;DHT22;61553;48.994;8.940;2022-09-03T19:55:25;16.80;99.90
32322;DHT22;61553;48.994;8.940;2022-09-03T19:58:12;16.70;99.90
32322;DHT22;61553;48.994;8.940;2022-09-03T20:00:59;16.70;99.90
32322;DHT22;61553;48.994;8.940;2022-09-03T20:03:44;16.70;99.90
32322;DHT22;61553;48.994;8.940;2022-09-03T20:06:28;16.80;99.90
32322;DHT22;61553;48.994;8.940;2022-09-03T20:09:17;16.80;99.90
32322;DHT22;61553;48.994;8.940;2022-09-03T20:12:06;16.80;99.90
32322;DHT22;61553;48.994;8.940;2022-09-03T20:14:34;16.90;99.90
32322;DHT22;61553;48.994;8.940;2022-09-03T20:17:25;16.80;99.90
32322;DHT22;61553;48.994;8.940;2022-09-03T20:22:36;16.90;99.90
32322;DHT22;61553;48.994;8.940;2022-09-03T20:25:08;16.90;99.90
32322;DHT22;61553;48.994;8.940;2022-09-03T20:30:19;16.90;99.90
32322;DHT22;61553;48.994;8.940;2022-09-03T20:40:33;17.00;99.90
32322;DHT22;61553;48.994;8.940;2022-09-03T20:43:08;17.00;99.90
32322;DHT22;61553;48.994;8.940;2022-09-03T20:48:46;17.00;99.90
32322;DHT22;61553;48.994;8.940;2022-09-03T20:51:21;17.10;99.90
32322;DHT22;61553;48.994;8.940;2022-09-03T21:01:55;17.00;99.90
32322;DHT22;61553;48.994;8.940;2022-09-03T21:15:53;16.90;99.90
32322;DHT22;61553;48.994;8.940;2022-09-03T21:18:33;16.90;99.90
32322;DHT22;61553;48.994;8.940;2022-09-03T21:24:10;16.80;99.90
32322;DHT22;61553;48.994;8.940;2022-09-03T21:26:40;16.80;99.90
32322;DHT22;61553;48.994;8.940;2022-09-03T21:29:22;16.70;99.90
32322;DHT22;61553;48.994;8.940;2022-09-03T21:32:37;16.60;99.90
32322;DHT22;61553;48.994;8.940;2022-09-03T21:38:07;16.40;99.90
32322;DHT22;61553;48.994;8.940;2022-09-03T21:40:41;16.30;99.90
32322;DHT22;61553;48.994;8.940;2022-09-03T21:46:07;16.20;99.90
32322;DHT22;61553;48.994;8.940;2022-09-03T21:51:20;16.10;99.90
32322;DHT22;61553;48.994;8.940;2022-09-03T21:53:52;16.00;99.90
32322;DHT22;61553;48.994;8.940;2022-09-03T22:04:35;15.70;99.90
32322;DHT22;61553;48.994;8.940;2022-09-03T22:12:32;15.50;99.90
32322;DHT22;61553;48.994;8.940;2022-09-03T22:15:02;15.50;99.90
32322;DHT22;61553;48.994;8.940;2022-09-03T22:20:16;15.40;99.90
32322;DHT22;61553;48.994;8.940;2022-09-03T22:22:53;15.30;99.90
32322;DHT22;61553;48.994;8.940;2022-09-03T22:28:06;15.20;99.90
32322;DHT22;61553;48.994;8.940;2022-09-03T22:30:49;15.20;99.90
32322;DHT22;61553;48.994;8.940;2022-09-03T22:33:37;15.10;99.90
32322;DHT22;61553;48.994;8.940;2022-09-03T22:36:13;15.10;99.90
32322;DHT22;61553;48.994;8.940;2022-09-03T22:41:36;15.20;99.90
32322;DHT22;61553;48.994;8.940;2022-09-03T22:49:58;15.20;99.90